createdAt,value
2023-03-18T13:25:52.351Z,12.75
2023-03-18T13:26:52.742Z,12.98
2023-03-18T13:27:53.279Z,13.19
2023-03-18T13:28:53.819Z,13.40
2023-03-18T13:29:54.389Z,13.59
2023-03-18T13:30:54.996Z,13.78
2023-03-18T13:31:55.536Z,13.95
2023-03-18T13:32:56.249Z,14.11
2023-03-18T13:33:56.693Z,14.26
2023-03-18T13:34:57.457Z,14.40
2023-03-18T13:35:58.072Z,14.54
2023-03-18T13:36:08.911Z,13.43
2023-03-18T13:37:09.269Z,16.63
2023-03-18T13:38:09.806Z,16.63
2023-03-18T13:39:10.422Z,16.63
2023-03-18T13:40:10.993Z,16.63
2023-03-18T13:41:11.575Z,16.63
2023-03-18T13:42:12.225Z,16.63
2023-03-18T13:43:12.807Z,16.64
2023-03-18T13:44:13.654Z,16.64
2023-03-18T13:45:14.228Z,16.65
2023-03-18T13:46:14.956Z,16.66
2023-03-18T13:47:15.549Z,16.67
2023-03-18T13:47:24.157Z,14.84
2023-03-18T13:48:24.622Z,16.76
2023-03-18T13:49:25.544Z,16.75
2023-03-18T13:50:26.149Z,16.75
2023-03-18T13:51:26.708Z,16.74
2023-03-18T13:52:27.249Z,16.75
2023-03-18T13:53:28.143Z,16.75
2023-03-18T13:54:28.750Z,16.75
2023-03-18T13:55:29.251Z,16.74
2023-03-18T13:56:29.826Z,16.74
2023-03-18T13:57:30.411Z,16.74
2023-03-18T13:58:30.906Z,16.74
2023-03-18T13:58:39.537Z,13.50
2023-03-18T13:59:40.034Z,16.73
2023-03-18T14:00:40.668Z,16.73
2023-03-18T14:01:41.224Z,16.72
2023-03-18T14:02:41.827Z,16.71
2023-03-18T14:03:42.505Z,16.72
2023-03-18T14:04:43.918Z,16.72
2023-03-18T14:05:43.683Z,16.72
2023-03-18T14:06:44.504Z,16.73
2023-03-18T14:07:45.251Z,16.73
2023-03-18T14:08:45.583Z,16.74
2023-03-18T14:09:45.953Z,16.74
2023-03-18T14:09:57.073Z,14.09
2023-03-18T14:10:55.333Z,16.90
2023-03-18T14:11:55.985Z,16.89
2023-03-18T14:12:56.367Z,16.90
2023-03-18T14:13:57.212Z,16.90
2023-03-18T14:14:58.062Z,16.90
2023-03-18T14:15:58.541Z,16.91
2023-03-18T14:16:59.482Z,16.92
2023-03-18T14:18:00.449Z,16.93
2023-03-18T14:19:02.912Z,16.94
2023-03-18T14:20:01.207Z,16.96
2023-03-18T14:21:01.900Z,16.96
2023-03-18T14:22:02.738Z,16.97
2023-03-18T14:22:17.629Z,13.51
2023-03-18T14:23:17.882Z,17.21
2023-03-18T14:24:19.180Z,17.21
2023-03-18T14:25:19.623Z,17.23
2023-03-18T14:26:20.135Z,17.23
2023-03-18T14:27:21.120Z,17.24
2023-03-18T14:28:21.999Z,17.24
2023-03-18T14:29:22.644Z,17.25
2023-03-18T14:30:23.214Z,17.26
2023-03-18T14:31:25.220Z,17.26
2023-03-18T14:32:24.986Z,17.26
2023-03-18T14:33:25.563Z,17.23
2023-03-18T14:33:36.043Z,14.78
2023-03-18T14:34:36.792Z,16.88
2023-03-18T14:35:37.099Z,16.88
2023-03-18T14:36:40.670Z,16.88
2023-03-18T14:37:38.142Z,16.89
2023-03-18T14:38:38.738Z,16.89
2023-03-18T14:39:39.485Z,16.89
2023-03-18T14:40:40.432Z,16.89
2023-03-18T14:41:41.170Z,16.89
2023-03-18T14:42:42.758Z,16.89
2023-03-18T14:43:42.761Z,16.88
2023-03-18T14:44:42.714Z,16.88
2023-03-18T14:44:52.444Z,12.22
2023-03-18T14:45:53.014Z,16.82
2023-03-18T14:46:54.009Z,16.83
2023-03-18T14:47:54.510Z,16.85
2023-03-18T14:48:56.396Z,16.87
2023-03-18T14:49:55.996Z,16.90
2023-03-18T14:50:56.661Z,16.95
2023-03-18T14:51:57.275Z,17.00
2023-03-18T14:52:57.828Z,17.05
2023-03-18T14:53:58.599Z,17.10
2023-03-18T14:54:59.201Z,17.16
2023-03-18T14:55:59.509Z,17.21
2023-03-18T14:56:08.597Z,14.79
2023-03-18T14:57:09.189Z,18.13
2023-03-18T14:58:09.733Z,18.12
2023-03-18T14:59:10.334Z,18.13
2023-03-18T15:00:10.951Z,18.15
2023-03-18T15:01:11.556Z,18.17
2023-03-18T15:02:12.209Z,18.19
2023-03-18T15:03:12.499Z,18.22
2023-03-18T15:04:13.067Z,18.25
2023-03-18T15:05:14.038Z,18.29
2023-03-18T15:06:14.637Z,18.33
2023-03-18T15:06:25.791Z,15.55
2023-03-18T15:07:25.765Z,18.93
2023-03-18T15:08:32.036Z,18.93
2023-03-18T15:09:26.764Z,18.91
2023-03-18T15:10:27.310Z,18.91
2023-03-18T15:11:28.041Z,18.89
2023-03-18T15:12:28.965Z,18.86
2023-03-18T15:13:29.682Z,18.84
2023-03-18T15:14:30.369Z,18.82
2023-03-18T15:15:31.086Z,18.81
2023-03-18T15:16:31.768Z,18.81
2023-03-18T15:17:32.224Z,18.81
2023-03-18T15:17:42.868Z,16.48
2023-03-18T15:18:43.334Z,18.84
2023-03-18T15:19:43.999Z,18.84
2023-03-18T15:20:44.636Z,18.85
2023-03-18T15:21:45.506Z,18.85
2023-03-18T15:22:46.011Z,18.85
2023-03-18T15:23:46.067Z,18.85
2023-03-18T15:24:46.663Z,18.84
2023-03-18T15:25:47.048Z,18.81
2023-03-18T15:26:47.549Z,18.77
2023-03-18T15:27:48.087Z,18.74
2023-03-18T15:28:48.463Z,18.70
2023-03-18T15:28:57.071Z,15.83
2023-03-18T15:29:57.614Z,18.11
2023-03-18T15:30:58.182Z,18.10
2023-03-18T15:32:01.184Z,18.07
2023-03-18T15:32:58.792Z,18.06
2023-03-18T15:34:02.469Z,18.03
2023-03-18T15:34:59.770Z,17.98
2023-03-18T15:36:00.507Z,17.93
2023-03-18T15:37:01.190Z,17.89
2023-03-18T15:38:01.780Z,17.85
2023-03-18T15:39:02.614Z,17.81
2023-03-18T15:40:03.214Z,17.77
2023-03-18T15:40:12.884Z,14.29
2023-03-18T15:41:13.463Z,17.15
2023-03-18T15:42:14.113Z,17.15
2023-03-18T15:43:14.632Z,17.16
2023-03-18T15:44:15.006Z,17.18
2023-03-18T15:45:15.088Z,17.21
2023-03-18T15:46:15.735Z,17.23
2023-03-18T15:47:16.337Z,17.26
2023-03-18T15:48:22.710Z,17.28
2023-03-18T15:49:20.417Z,17.31
2023-03-18T15:50:18.519Z,17.34
2023-03-18T15:51:18.702Z,17.37
2023-03-18T15:52:19.479Z,17.40
2023-03-18T15:52:28.125Z,15.12
2023-03-18T15:53:28.932Z,17.77
2023-03-18T15:54:30.573Z,17.76
2023-03-18T15:55:30.463Z,17.75
2023-03-18T15:56:31.186Z,17.75
2023-03-18T15:57:31.761Z,17.74
2023-03-18T15:58:32.238Z,17.73
2023-03-18T15:59:32.809Z,17.73
2023-03-18T16:00:33.340Z,17.73
2023-03-18T16:01:34.053Z,17.73
2023-03-18T16:02:34.729Z,17.73
2023-03-18T16:03:35.317Z,17.75
2023-03-18T16:03:46.509Z,15.03
2023-03-18T16:04:47.035Z,17.88
2023-03-18T16:05:47.519Z,17.88
2023-03-18T16:06:48.244Z,17.89
2023-03-18T16:07:48.812Z,17.90
2023-03-18T16:08:49.382Z,17.91
2023-03-18T16:09:50.011Z,17.91
2023-03-18T16:10:50.100Z,17.93
2023-03-18T16:11:52.101Z,17.94
2023-03-18T16:12:51.613Z,17.96
2023-03-18T16:13:52.159Z,17.98
2023-03-18T16:14:52.569Z,17.99
2023-03-18T16:15:05.969Z,15.13
2023-03-18T16:16:06.168Z,18.18
2023-03-18T16:17:07.862Z,18.18
2023-03-18T16:18:07.443Z,18.18
2023-03-18T16:19:08.370Z,18.17
2023-03-18T16:20:08.956Z,18.17
2023-03-18T16:21:09.595Z,18.17
2023-03-18T16:22:09.643Z,18.17
2023-03-18T16:23:10.232Z,18.17
2023-03-18T16:24:11.048Z,18.16
2023-03-18T16:25:11.865Z,18.14
2023-03-18T16:26:12.848Z,18.13
2023-03-18T16:26:21.899Z,14.08
2023-03-18T16:27:22.430Z,17.95
2023-03-18T16:28:23.426Z,17.95
2023-03-18T16:29:24.141Z,17.95
2023-03-18T16:30:24.747Z,17.94
2023-03-18T16:31:25.333Z,17.93
2023-03-18T16:32:25.976Z,17.92
2023-03-18T16:33:26.553Z,17.90
2023-03-18T16:34:26.841Z,17.89
2023-03-18T16:35:27.848Z,17.88
2023-03-18T16:36:28.229Z,17.87
2023-03-18T16:36:40.724Z,14.33
2023-03-18T16:37:38.608Z,17.61
2023-03-18T16:38:39.234Z,17.61
2023-03-18T16:39:39.878Z,17.61
2023-03-18T16:40:40.750Z,17.60
2023-03-18T16:41:41.218Z,17.60
2023-03-18T16:42:41.822Z,17.58
2023-03-18T16:43:42.577Z,17.57
2023-03-18T16:44:42.950Z,17.55
2023-03-18T16:45:43.600Z,17.53
2023-03-18T16:47:16.463Z,13.64
2023-03-18T16:48:18.034Z,17.06
2023-03-18T16:49:17.216Z,17.05
2023-03-18T16:50:17.799Z,17.04
2023-03-18T16:51:18.558Z,17.03
2023-03-18T16:52:19.379Z,17.01
2023-03-18T16:53:20.165Z,16.98
2023-03-18T16:54:20.767Z,16.95
2023-03-18T16:55:21.397Z,16.92
2023-03-18T16:56:21.931Z,16.88
2023-03-18T16:57:22.479Z,16.85
2023-03-18T16:58:23.084Z,16.81
2023-03-18T16:59:23.608Z,16.77
2023-03-18T16:59:33.238Z,13.64
2023-03-18T17:00:34.256Z,16.12
2023-03-18T17:01:35.028Z,16.11
2023-03-18T17:02:34.455Z,16.09
2023-03-18T17:03:35.058Z,16.07
2023-03-18T17:04:35.706Z,16.05
2023-03-18T17:05:36.388Z,16.02
2023-03-18T17:06:37.182Z,15.99
2023-03-18T17:07:38.143Z,15.96
2023-03-18T17:08:38.853Z,15.94
2023-03-18T17:09:38.870Z,15.91
2023-03-18T17:09:54.892Z,13.09
2023-03-18T17:10:54.380Z,15.42
2023-03-18T17:11:54.949Z,15.42
2023-03-18T17:12:55.657Z,15.42
2023-03-18T17:13:56.664Z,15.41
2023-03-18T17:14:57.214Z,15.41
2023-03-18T17:15:57.462Z,15.40
2023-03-18T17:16:58.265Z,15.38
2023-03-18T17:18:00.081Z,15.37
2023-03-18T17:18:59.688Z,15.34
2023-03-18T17:20:00.340Z,15.32
2023-03-18T17:20:20.635Z,12.44
2023-03-18T17:21:20.683Z,14.82
2023-03-18T17:22:20.509Z,14.81
2023-03-18T17:23:21.393Z,14.81
2023-03-18T17:24:22.103Z,14.79
2023-03-18T17:25:23.088Z,14.77
2023-03-18T17:26:23.300Z,14.74
2023-03-18T17:27:23.919Z,14.70
2023-03-18T17:28:24.446Z,14.66
2023-03-18T17:29:25.879Z,14.62
2023-03-18T17:30:25.628Z,14.57
2023-03-18T17:31:26.685Z,14.53
2023-03-18T17:31:43.612Z,11.85
2023-03-18T17:32:44.652Z,13.86
2023-03-18T17:33:45.316Z,13.85
2023-03-18T17:34:46.353Z,13.85
2023-03-18T17:35:47.289Z,13.84
2023-03-18T17:36:47.475Z,13.82
2023-03-18T17:37:48.305Z,13.81
2023-03-18T17:38:48.931Z,13.80
2023-03-18T17:39:49.722Z,13.78
2023-03-18T17:40:49.849Z,13.76
2023-03-18T17:41:50.714Z,13.74
2023-03-18T17:42:51.558Z,13.71
2023-03-18T17:43:00.644Z,12.07
2023-03-18T17:44:02.091Z,13.30
2023-03-18T17:45:01.787Z,13.29
2023-03-18T17:46:02.388Z,13.29
2023-03-18T17:47:03.063Z,13.28
2023-03-18T17:48:03.264Z,13.26
2023-03-18T17:49:04.172Z,13.25
2023-03-18T17:50:06.127Z,13.23
2023-03-18T17:51:06.530Z,13.21
2023-03-18T17:52:06.347Z,13.19
2023-03-18T17:53:06.833Z,13.17
2023-03-18T17:54:07.084Z,13.15
2023-03-18T17:54:16.305Z,10.38
2023-03-18T17:55:16.621Z,12.76
2023-03-18T17:56:17.447Z,12.76
2023-03-18T17:57:17.668Z,12.75
2023-03-18T17:58:18.211Z,12.74
2023-03-18T17:59:18.800Z,12.73
2023-03-18T18:00:19.554Z,12.72
2023-03-18T18:01:20.059Z,12.70
2023-03-18T18:02:20.815Z,12.69
2023-03-18T18:03:22.461Z,12.67
2023-03-18T18:04:21.977Z,12.65
2023-03-18T18:05:22.685Z,12.63
2023-03-18T18:06:22.890Z,12.60
2023-03-18T18:06:31.524Z,9.63
2023-03-18T18:07:32.026Z,12.10
2023-03-18T18:08:32.774Z,12.09
2023-03-18T18:09:33.791Z,12.09
2023-03-18T18:10:34.512Z,12.09
2023-03-18T18:11:35.261Z,12.08
2023-03-18T18:12:36.175Z,12.07
2023-03-18T18:13:36.840Z,12.06
2023-03-18T18:14:37.492Z,12.05
2023-03-18T18:15:39.436Z,12.04
2023-03-18T18:17:23.687Z,9.20
2023-03-18T18:18:15.034Z,11.88
2023-03-18T18:19:15.944Z,11.87
2023-03-18T18:20:23.529Z,11.87
2023-03-18T18:21:17.003Z,11.86
2023-03-18T18:22:17.617Z,11.85
2023-03-18T18:23:18.473Z,11.84
2023-03-18T18:24:19.171Z,11.83
2023-03-18T18:25:19.441Z,11.81
2023-03-18T18:26:19.546Z,11.80
2023-03-18T18:27:20.101Z,11.79
2023-03-18T18:28:20.647Z,11.78
2023-03-18T18:28:38.067Z,10.24
2023-03-18T18:29:35.478Z,11.58
2023-03-18T18:30:54.026Z,11.58
2023-03-18T18:31:38.664Z,11.58
2023-03-18T18:32:40.218Z,11.57
2023-03-18T18:33:37.312Z,11.56
2023-03-18T18:34:37.627Z,11.56
2023-03-18T18:35:38.540Z,11.55
2023-03-18T18:36:39.235Z,11.54
2023-03-18T18:37:43.103Z,11.54
2023-03-18T18:38:40.317Z,11.53
2023-03-18T18:39:43.751Z,11.52
2023-03-18T18:40:42.290Z,11.51
2023-03-18T18:41:43.035Z,11.50
2023-03-18T18:42:02.859Z,9.56
2023-03-18T18:43:01.054Z,11.38
2023-03-18T18:44:01.546Z,11.38
2023-03-18T18:45:03.124Z,11.38
2023-03-18T18:46:02.846Z,11.38
2023-03-18T18:47:03.771Z,11.37
2023-03-18T18:48:07.306Z,11.36
2023-03-18T18:49:04.872Z,11.35
2023-03-18T18:50:05.585Z,11.34
2023-03-18T18:51:06.400Z,11.34
2023-03-18T18:52:07.121Z,11.33
2023-03-18T18:53:07.862Z,11.33
2023-03-18T18:53:18.486Z,10.57
2023-03-18T18:54:18.895Z,11.21
2023-03-18T18:55:19.518Z,11.20
2023-03-18T18:56:19.670Z,11.20
2023-03-18T18:57:22.587Z,11.20
2023-03-18T18:58:21.234Z,11.19
2023-03-18T18:59:21.513Z,11.19
2023-03-18T19:00:22.109Z,11.18
2023-03-18T19:01:22.753Z,11.17
2023-03-18T19:02:23.363Z,11.17
2023-03-18T19:03:24.358Z,11.16
2023-03-18T19:04:25.280Z,11.15
2023-03-18T19:04:34.004Z,10.43
2023-03-18T19:05:34.304Z,11.00
2023-03-18T19:06:34.757Z,10.99
2023-03-18T19:07:34.829Z,10.99
2023-03-18T19:08:35.621Z,10.99
2023-03-18T19:09:36.129Z,10.99
2023-03-18T19:10:36.660Z,10.99
2023-03-18T19:11:37.563Z,10.99
2023-03-18T19:12:38.008Z,10.98
2023-03-18T19:13:38.790Z,10.98
2023-03-18T19:14:39.663Z,10.98
2023-03-18T19:15:59.826Z,8.67
2023-03-18T19:17:00.240Z,10.89
2023-03-18T19:18:00.450Z,10.88
2023-03-18T19:19:00.960Z,10.88
2023-03-18T19:20:09.464Z,10.88
2023-03-18T19:21:02.884Z,10.87
2023-03-18T19:22:03.482Z,10.87
2023-03-18T19:23:03.579Z,10.86
2023-03-18T19:24:13.160Z,10.86
2023-03-18T19:25:04.636Z,10.85
2023-03-18T19:26:09.374Z,10.84
2023-03-18T19:27:07.607Z,10.83
2023-03-18T19:28:05.541Z,10.83
2023-03-18T19:28:31.594Z,10.12
2023-03-18T19:29:31.956Z,10.74
2023-03-18T19:30:32.239Z,10.74
2023-03-18T19:31:32.512Z,10.75
2023-03-18T19:32:33.000Z,10.75
2023-03-18T19:33:34.700Z,10.76
2023-03-18T19:34:34.522Z,10.76
2023-03-18T19:35:35.248Z,10.76
2023-03-18T19:36:35.780Z,10.77
2023-03-18T19:37:36.443Z,10.78
2023-03-18T19:38:37.327Z,10.78
2023-03-18T19:39:38.474Z,10.79
2023-03-18T19:40:38.115Z,10.79
2023-03-18T19:40:51.405Z,10.12
2023-03-18T19:41:49.619Z,10.87
2023-03-18T19:42:52.776Z,10.87
2023-03-18T19:43:53.824Z,10.86
2023-03-18T19:44:54.548Z,10.85
2023-03-18T19:45:53.165Z,10.85
2023-03-18T19:46:56.476Z,10.84
2023-03-18T19:47:54.934Z,10.82
2023-03-18T19:48:55.064Z,10.81
2023-03-18T19:49:57.882Z,10.80
2023-03-18T19:50:57.828Z,10.79
2023-03-18T19:51:56.088Z,10.78
2023-03-18T19:52:57.585Z,10.77
2023-03-18T19:53:13.315Z,9.77
2023-03-18T19:54:15.704Z,10.60
2023-03-18T19:55:14.505Z,10.60
2023-03-18T19:56:14.400Z,10.60
2023-03-18T19:57:14.539Z,10.61
2023-03-18T19:58:17.352Z,10.61
2023-03-18T19:59:15.209Z,10.61
2023-03-18T20:00:15.843Z,10.61
2023-03-18T20:01:16.534Z,10.61
2023-03-18T20:02:17.357Z,10.61
2023-03-18T20:03:19.853Z,10.60
2023-03-18T20:04:18.398Z,10.60
2023-03-18T20:05:20.072Z,10.60
2023-03-18T20:05:36.015Z,9.31
2023-03-18T20:06:36.615Z,10.51
2023-03-18T20:07:39.940Z,10.51
2023-03-18T20:08:38.059Z,10.50
2023-03-18T20:09:38.662Z,10.50
2023-03-18T20:10:39.292Z,10.49
2023-03-18T20:11:40.048Z,10.48
2023-03-18T20:12:40.371Z,10.47
2023-03-18T20:13:41.331Z,10.46
2023-03-18T20:14:42.068Z,10.45
2023-03-18T20:15:42.950Z,10.44
2023-03-18T20:16:43.316Z,10.43
2023-03-18T20:17:06.087Z,9.76
2023-03-18T20:17:57.959Z,10.30
2023-03-18T20:18:58.990Z,10.30
2023-03-18T20:19:59.926Z,10.30
2023-03-18T20:21:00.474Z,10.30
2023-03-18T20:22:00.739Z,10.30
2023-03-18T20:23:00.147Z,10.30
2023-03-18T20:24:00.729Z,10.30
2023-03-18T20:25:08.839Z,10.30
2023-03-18T20:26:01.462Z,10.30
2023-03-18T20:27:02.202Z,10.30
2023-03-18T20:28:02.901Z,10.30
2023-03-18T20:28:29.445Z,10.48
2023-03-18T20:29:31.897Z,10.29
2023-03-18T20:30:31.138Z,10.29
2023-03-18T20:31:30.286Z,10.29
2023-03-18T20:32:30.314Z,10.30
2023-03-18T20:33:31.041Z,10.30
2023-03-18T20:34:31.860Z,10.30
2023-03-18T20:35:40.426Z,10.30
2023-03-18T20:36:35.802Z,10.30
2023-03-18T20:37:41.889Z,10.31
2023-03-18T20:38:35.305Z,10.31
2023-03-18T20:39:35.471Z,10.31
2023-03-18T20:39:52.240Z,9.19
2023-03-18T20:40:49.781Z,10.31
2023-03-18T20:41:56.991Z,10.31
2023-03-18T20:42:50.100Z,10.30
2023-03-18T20:43:50.752Z,10.30
2023-03-18T20:44:51.484Z,10.30
2023-03-18T20:45:52.229Z,10.29
2023-03-18T20:46:53.080Z,10.29
2023-03-18T20:47:53.774Z,10.29
2023-03-18T20:48:54.475Z,10.28
2023-03-18T20:49:55.080Z,10.28
2023-03-18T20:50:14.073Z,9.46
2023-03-18T20:51:11.860Z,10.15
2023-03-18T20:52:12.782Z,10.15
2023-03-18T20:53:12.838Z,10.15
2023-03-18T20:54:13.718Z,10.15
2023-03-18T20:55:14.144Z,10.15
2023-03-18T20:56:14.752Z,10.15
2023-03-18T20:57:15.545Z,10.14
2023-03-18T20:58:16.345Z,10.14
2023-03-18T20:59:16.428Z,10.14
2023-03-18T21:00:17.113Z,10.14
2023-03-18T21:00:47.142Z,9.51
2023-03-18T21:01:38.596Z,10.11
2023-03-18T21:02:38.878Z,10.11
2023-03-18T21:03:39.684Z,10.11
2023-03-18T21:04:47.600Z,10.11
2023-03-18T21:05:40.683Z,10.11
2023-03-18T21:06:44.060Z,10.11
2023-03-18T21:07:52.384Z,10.11
2023-03-18T21:08:41.995Z,10.10
2023-03-18T21:09:45.322Z,10.10
2023-03-18T21:10:51.036Z,10.10
2023-03-18T21:11:46.256Z,10.10
2023-03-18T21:12:43.963Z,10.09
2023-03-18T21:13:57.851Z,8.70
2023-03-18T21:15:01.425Z,10.05
2023-03-18T21:15:59.594Z,10.05
2023-03-18T21:17:07.725Z,10.05
2023-03-18T21:18:08.237Z,10.05
2023-03-18T21:19:03.973Z,10.06
2023-03-18T21:20:23.078Z,10.05
2023-03-18T21:21:01.902Z,10.05
2023-03-18T21:22:02.559Z,10.05
2023-03-18T21:23:02.901Z,10.05
2023-03-18T21:24:05.902Z,10.05
2023-03-18T21:25:04.033Z,10.05
2023-03-18T21:26:04.864Z,10.05
2023-03-18T21:27:07.929Z,10.05
2023-03-18T21:27:34.829Z,9.62
2023-03-18T21:28:29.651Z,10.03
2023-03-18T21:29:30.603Z,10.03
2023-03-18T21:30:31.510Z,10.03
2023-03-18T21:31:38.825Z,10.03
2023-03-18T21:32:32.439Z,10.02
2023-03-18T21:33:33.379Z,10.02
2023-03-18T21:34:33.777Z,10.02
2023-03-18T21:35:51.977Z,10.01
2023-03-18T21:36:36.665Z,10.00
2023-03-18T21:37:37.735Z,10.00
2023-03-18T21:38:35.378Z,9.99
2023-03-18T21:39:35.833Z,9.98
2023-03-18T21:40:36.369Z,9.97
2023-03-18T21:40:47.953Z,8.40
2023-03-18T21:41:48.673Z,9.78
2023-03-18T21:42:51.573Z,9.78
2023-03-18T21:43:51.593Z,9.78
2023-03-18T21:44:50.118Z,9.77
2023-03-18T21:45:50.209Z,9.77
2023-03-18T21:46:51.838Z,9.77
2023-03-18T21:47:50.962Z,9.76
2023-03-18T21:48:51.418Z,9.76
2023-03-18T21:49:53.472Z,9.75
2023-03-18T21:50:55.059Z,9.74
2023-03-18T21:51:53.107Z,9.74
2023-03-18T21:52:08.791Z,8.95
2023-03-18T21:53:09.571Z,9.80
2023-03-18T21:54:33.157Z,9.80
2023-03-18T21:55:11.245Z,9.80
2023-03-18T21:56:11.988Z,9.81
2023-03-18T21:57:14.787Z,9.81
2023-03-18T21:58:14.239Z,9.81
2023-03-18T21:59:16.426Z,9.81
2023-03-18T22:00:14.369Z,9.81
2023-03-18T22:01:14.988Z,9.82
2023-03-18T22:02:15.218Z,9.83
2023-03-18T22:03:15.867Z,9.84
2023-03-18T22:04:16.655Z,9.84
2023-03-18T22:04:25.786Z,9.39
2023-03-18T22:05:33.904Z,9.91
2023-03-18T22:06:26.382Z,9.91
2023-03-18T22:07:27.065Z,9.91
2023-03-18T22:08:27.882Z,9.91
2023-03-18T22:09:27.991Z,9.90
2023-03-18T22:10:28.637Z,9.90
2023-03-18T22:11:29.173Z,9.90
2023-03-18T22:12:30.114Z,9.89
2023-03-18T22:13:31.085Z,9.89
2023-03-18T22:14:31.765Z,9.89
2023-03-18T22:15:32.793Z,9.88
2023-03-18T22:15:56.613Z,9.09
2023-03-18T22:16:57.046Z,9.81
2023-03-18T22:17:57.589Z,9.81
2023-03-18T22:18:58.541Z,9.81
2023-03-18T22:19:59.159Z,9.81
2023-03-18T22:20:59.775Z,9.81
2023-03-18T22:22:00.440Z,9.81
2023-03-18T22:23:01.069Z,9.81
2023-03-18T22:24:01.071Z,9.81
2023-03-18T22:25:01.709Z,9.81
2023-03-18T22:26:02.313Z,9.81
2023-03-18T22:27:02.961Z,9.80
2023-03-18T22:27:14.571Z,8.16
2023-03-18T22:28:15.506Z,9.80
2023-03-18T22:29:16.137Z,9.80
2023-03-18T22:30:16.785Z,9.80
2023-03-18T22:31:17.588Z,9.80
2023-03-18T22:32:18.039Z,9.80
2023-03-18T22:33:18.745Z,9.80
2023-03-18T22:34:19.701Z,9.80
2023-03-18T22:35:20.453Z,9.80
2023-03-18T22:36:21.025Z,9.80
2023-03-18T22:37:21.410Z,9.80
2023-03-18T22:37:32.032Z,9.44
2023-03-18T22:38:32.875Z,9.82
2023-03-18T22:39:33.088Z,9.82
2023-03-18T22:40:33.751Z,9.82
2023-03-18T22:41:35.356Z,9.82
2023-03-18T22:42:34.904Z,9.82
2023-03-18T22:43:35.020Z,9.82
2023-03-18T22:44:35.536Z,9.82
2023-03-18T22:45:36.335Z,9.82
2023-03-18T22:46:36.923Z,9.82
2023-03-18T22:47:37.743Z,9.82
2023-03-18T22:48:38.311Z,9.82
2023-03-18T22:48:47.320Z,9.16
2023-03-18T22:49:47.838Z,9.83
2023-03-18T22:50:48.748Z,9.83
2023-03-18T22:51:49.536Z,9.83
2023-03-18T22:52:49.920Z,9.82
2023-03-18T22:53:50.791Z,9.82
2023-03-18T22:54:51.476Z,9.82
2023-03-18T22:55:52.129Z,9.81
2023-03-18T22:56:53.063Z,9.81
2023-03-18T22:57:53.510Z,9.80
2023-03-18T22:58:54.031Z,9.79
2023-03-18T22:59:54.565Z,9.78
2023-03-18T23:00:03.226Z,9.07
2023-03-18T23:01:03.801Z,9.69
2023-03-18T23:02:04.441Z,9.69
2023-03-18T23:03:05.090Z,9.69
2023-03-18T23:04:05.626Z,9.69
2023-03-18T23:05:06.232Z,9.69
2023-03-18T23:06:06.797Z,9.69
2023-03-18T23:07:07.209Z,9.69
2023-03-18T23:08:07.750Z,9.69
2023-03-18T23:09:08.366Z,9.69
2023-03-18T23:10:09.347Z,9.69
2023-03-18T23:10:18.007Z,9.28
2023-03-18T23:11:18.572Z,9.69
2023-03-18T23:12:19.099Z,9.69
2023-03-18T23:13:19.324Z,9.69
2023-03-18T23:14:19.881Z,9.69
2023-03-18T23:15:20.533Z,9.68
2023-03-18T23:16:21.329Z,9.68
2023-03-18T23:17:21.570Z,9.68
2023-03-18T23:18:22.249Z,9.67
2023-03-18T23:19:22.869Z,9.67
2023-03-18T23:20:23.488Z,9.66
2023-03-18T23:20:34.408Z,9.14
2023-03-18T23:21:34.716Z,9.59
2023-03-18T23:22:35.360Z,9.59
2023-03-18T23:23:35.931Z,9.59
2023-03-18T23:24:39.226Z,9.58
2023-03-18T23:25:36.867Z,9.57
2023-03-18T23:26:37.482Z,9.57
2023-03-18T23:27:38.035Z,9.56
2023-03-18T23:28:44.511Z,9.56
2023-03-18T23:29:39.276Z,9.56
2023-03-18T23:30:40.218Z,9.55
2023-03-18T23:31:40.920Z,9.55
2023-03-18T23:31:50.545Z,9.07
2023-03-18T23:32:50.998Z,9.48
2023-03-18T23:33:51.519Z,9.48
2023-03-18T23:34:52.165Z,9.48
2023-03-18T23:35:52.251Z,9.48
2023-03-18T23:36:53.621Z,9.48
2023-03-18T23:37:53.209Z,9.48
2023-03-18T23:38:56.498Z,9.47
2023-03-18T23:39:55.498Z,9.47
2023-03-18T23:40:55.108Z,9.46
2023-03-18T23:41:55.787Z,9.46
2023-03-18T23:42:06.424Z,8.71
2023-03-18T23:43:07.085Z,9.38
2023-03-18T23:44:07.935Z,9.38
2023-03-18T23:45:08.610Z,9.38
2023-03-18T23:46:09.166Z,9.38
2023-03-18T23:47:10.050Z,9.38
2023-03-18T23:48:10.826Z,9.38
2023-03-18T23:49:11.377Z,9.37
2023-03-18T23:50:11.727Z,9.37
2023-03-18T23:51:12.018Z,9.36
2023-03-18T23:52:12.605Z,9.36
2023-03-18T23:52:22.018Z,8.94
2023-03-18T23:53:22.531Z,9.31
2023-03-18T23:54:23.101Z,9.31
2023-03-18T23:55:33.984Z,9.31
2023-03-18T23:56:24.256Z,9.32
2023-03-18T23:57:24.935Z,9.32
2023-03-18T23:58:25.509Z,9.32
2023-03-18T23:59:26.462Z,9.32
